sensor_id;sensor_type;location;lat;lon;timestamp;pressure;altitude;pressure_sealevel;temperature;humidity
15634;BME280;14654;48.898;8.308;2023-10-13T00:00:38;100283.63;;;19.06;96.58
15634;BME280;14654;48.898;8.308;2023-10-13T00:03:07;100288.00;;;19.05;96.64
15634;BME280;14654;48.898;8.308;2023-10-13T00:05:40;100287.19;;;19.04;96.34
15634;BME280;14654;48.898;8.308;2023-10-13T00:08:08;100286.25;;;19.06;96.14
15634;BME280;14654;48.898;8.308;2023-10-13T00:10:34;100287.09;;;19.06;96.32
15634;BME280;14654;48.898;8.308;2023-10-13T00:12:59;100280.06;;;19.07;95.98
15634;BME280;14654;48.898;8.308;2023-10-13T00:15:44;100276.69;;;19.04;96.16
15634;BME280;14654;48.898;8.308;2023-10-13T00:18:22;100285.38;;;19.05;95.81
15634;BME280;14654;48.898;8.308;2023-10-13T00:20:48;100281.06;;;19.04;95.80
15634;BME280;14654;48.898;8.308;2023-10-13T00:23:15;100276.69;;;19.04;95.65
15634;BME280;14654;48.898;8.308;2023-10-13T00:25:50;100276.69;;;19.04;95.81
15634;BME280;14654;48.898;8.308;2023-10-13T00:28:25;100275.91;;;19.02;94.96
15634;BME280;14654;48.898;8.308;2023-10-13T00:30:52;100278.44;;;19.04;94.85
15634;BME280;14654;48.898;8.308;2023-10-13T00:33:25;100268.03;;;19.02;94.21
15634;BME280;14654;48.898;8.308;2023-10-13T00:35:51;100266.31;;;19.01;93.89
15634;BME280;14654;48.898;8.308;2023-10-13T00:38:23;100271.56;;;19.01;93.35
15634;BME280;14654;48.898;8.308;2023-10-13T00:40:48;100266.31;;;19.01;92.89
15634;BME280;14654;48.898;8.308;2023-10-13T00:43:20;100262.78;;;19.02;92.63
15634;BME280;14654;48.898;8.308;2023-10-13T00:48:28;100261.00;;;19.03;91.75
15634;BME280;14654;48.898;8.308;2023-10-13T00:51:01;100258.31;;;19.04;91.68
15634;BME280;14654;48.898;8.308;2023-10-13T00:53:34;100257.44;;;19.04;91.10
15634;BME280;14654;48.898;8.308;2023-10-13T00:56:08;100254.84;;;19.04;91.30
15634;BME280;14654;48.898;8.308;2023-10-13T00:58:42;100258.25;;;19.06;91.22
15634;BME280;14654;48.898;8.308;2023-10-13T01:01:07;100260.88;;;19.06;90.68
15634;BME280;14654;48.898;8.308;2023-10-13T01:03:54;100256.44;;;19.07;90.31
15634;BME280;14654;48.898;8.308;2023-10-13T01:06:28;100266.91;;;19.08;90.22
15634;BME280;14654;48.898;8.308;2023-10-13T01:09:02;100253.78;;;19.08;90.11
15634;BME280;14654;48.898;8.308;2023-10-13T01:11:44;100258.13;;;19.09;89.47
15634;BME280;14654;48.898;8.308;2023-10-13T01:14:13;100256.31;;;19.10;89.42
15634;BME280;14654;48.898;8.308;2023-10-13T01:16:42;100255.50;;;19.09;89.07
15634;BME280;14654;48.898;8.308;2023-10-13T01:19:15;100257.97;;;19.12;88.88
15634;BME280;14654;48.898;8.308;2023-10-13T01:21:45;100244.88;;;19.12;88.92
15634;BME280;14654;48.898;8.308;2023-10-13T01:24:12;100245.69;;;19.13;88.96
15634;BME280;14654;48.898;8.308;2023-10-13T01:26:38;100243.88;;;19.15;88.57
15634;BME280;14654;48.898;8.308;2023-10-13T01:29:05;100240.44;;;19.13;88.94
15634;BME280;14654;48.898;8.308;2023-10-13T01:31:41;100236.91;;;19.14;88.37
15634;BME280;14654;48.898;8.308;2023-10-13T01:34:15;100244.78;;;19.14;88.46
15634;BME280;14654;48.898;8.308;2023-10-13T01:36:48;100245.63;;;19.14;88.50
15634;BME280;14654;48.898;8.308;2023-10-13T01:39:16;100242.16;;;19.14;88.27
15634;BME280;14654;48.898;8.308;2023-10-13T01:41:41;100238.53;;;19.16;88.49
15634;BME280;14654;48.898;8.308;2023-10-13T01:44:08;100230.75;;;19.15;88.35
15634;BME280;14654;48.898;8.308;2023-10-13T01:46:37;100230.81;;;19.13;88.49
15634;BME280;14654;48.898;8.308;2023-10-13T01:49:02;100210.81;;;19.11;88.64
15634;BME280;14654;48.898;8.308;2023-10-13T01:51:27;100209.06;;;19.11;88.66
15634;BME280;14654;48.898;8.308;2023-10-13T01:53:54;100210.81;;;19.11;88.93
15634;BME280;14654;48.898;8.308;2023-10-13T01:56:23;100207.34;;;19.10;89.47
15634;BME280;14654;48.898;8.308;2023-10-13T01:58:49;100202.16;;;19.09;89.53
15634;BME280;14654;48.898;8.308;2023-10-13T02:01:14;100188.22;;;19.08;89.65
15634;BME280;14654;48.898;8.308;2023-10-13T02:03:52;100185.81;;;19.03;89.93
15634;BME280;14654;48.898;8.308;2023-10-13T02:06:26;100185.94;;;19.00;89.81
15634;BME280;14654;48.898;8.308;2023-10-13T02:08:58;100183.53;;;18.96;89.56
15634;BME280;14654;48.898;8.308;2023-10-13T02:11:28;100183.78;;;18.89;89.84
15634;BME280;14654;48.898;8.308;2023-10-13T02:13:54;100177.97;;;18.83;90.87
15634;BME280;14654;48.898;8.308;2023-10-13T02:16:22;100183.53;;;18.75;91.47
15634;BME280;14654;48.898;8.308;2023-10-13T02:18:47;100179.44;;;18.69;92.03
15634;BME280;14654;48.898;8.308;2023-10-13T02:21:17;100179.63;;;18.65;92.92
15634;BME280;14654;48.898;8.308;2023-10-13T02:23:43;100181.69;;;18.58;93.20
15634;BME280;14654;48.898;8.308;2023-10-13T02:26:12;100171.47;;;18.52;93.85
15634;BME280;14654;48.898;8.308;2023-10-13T02:28:40;100176.19;;;18.43;94.38
15634;BME280;14654;48.898;8.308;2023-10-13T02:31:06;100172.13;;;18.36;95.14
15634;BME280;14654;48.898;8.308;2023-10-13T02:33:32;100169.00;;;18.28;95.43
15634;BME280;14654;48.898;8.308;2023-10-13T02:36:03;100175.47;;;18.19;96.18
15634;BME280;14654;48.898;8.308;2023-10-13T02:38:30;100173.22;;;18.10;96.44
15634;BME280;14654;48.898;8.308;2023-10-13T02:41:11;100163.16;;;18.01;97.40
15634;BME280;14654;48.898;8.308;2023-10-13T02:43:37;100155.66;;;17.91;97.76
15634;BME280;14654;48.898;8.308;2023-10-13T02:46:03;100158.53;;;17.85;98.55
15634;BME280;14654;48.898;8.308;2023-10-13T02:48:29;100152.78;;;17.77;99.18
15634;BME280;14654;48.898;8.308;2023-10-13T02:51:06;100160.00;;;17.70;99.48
15634;BME280;14654;48.898;8.308;2023-10-13T02:53:44;100153.31;;;17.63;99.47
15634;BME280;14654;48.898;8.308;2023-10-13T02:56:18;100148.41;;;17.55;99.43
15634;BME280;14654;48.898;8.308;2023-10-13T02:58:48;100151.22;;;17.50;100.00
15634;BME280;14654;48.898;8.308;2023-10-13T03:01:19;100142.69;;;17.45;100.00
15634;BME280;14654;48.898;8.308;2023-10-13T03:03:49;100140.31;;;17.39;99.96
15634;BME280;14654;48.898;8.308;2023-10-13T03:06:20;100139.56;;;17.35;100.00
15634;BME280;14654;48.898;8.308;2023-10-13T03:08:50;100139.69;;;17.32;100.00
15634;BME280;14654;48.898;8.308;2023-10-13T03:11:17;100140.66;;;17.30;100.00
15634;BME280;14654;48.898;8.308;2023-10-13T03:13:48;100138.25;;;17.25;100.00
15634;BME280;14654;48.898;8.308;2023-10-13T03:16:16;100134.00;;;17.23;100.00
15634;BME280;14654;48.898;8.308;2023-10-13T03:18:43;100135.75;;;17.22;99.68
15634;BME280;14654;48.898;8.308;2023-10-13T03:21:22;100139.34;;;17.19;99.43
15634;BME280;14654;48.898;8.308;2023-10-13T03:23:58;100132.41;;;17.18;98.83
15634;BME280;14654;48.898;8.308;2023-10-13T03:26:32;100134.16;;;17.18;98.66
15634;BME280;14654;48.898;8.308;2023-10-13T03:29:03;100134.16;;;17.18;97.94
15634;BME280;14654;48.898;8.308;2023-10-13T03:31:32;100132.41;;;17.18;97.61
15634;BME280;14654;48.898;8.308;2023-10-13T03:34:03;100127.16;;;17.18;97.14
15634;BME280;14654;48.898;8.308;2023-10-13T03:36:29;100133.31;;;17.17;97.12
15634;BME280;14654;48.898;8.308;2023-10-13T03:39:13;100126.44;;;17.15;97.03
15634;BME280;14654;48.898;8.308;2023-10-13T03:41:39;100126.44;;;17.15;97.02
15634;BME280;14654;48.898;8.308;2023-10-13T03:44:05;100126.50;;;17.13;96.96
15634;BME280;14654;48.898;8.308;2023-10-13T03:46:38;100133.50;;;17.13;97.12
15634;BME280;14654;48.898;8.308;2023-10-13T03:49:06;100130.09;;;17.11;97.72
15634;BME280;14654;48.898;8.308;2023-10-13T03:51:37;100117.13;;;17.08;97.82
15634;BME280;14654;48.898;8.308;2023-10-13T03:54:04;100123.38;;;17.03;97.94
15634;BME280;14654;48.898;8.308;2023-10-13T03:56:32;100120.94;;;16.99;97.87
15634;BME280;14654;48.898;8.308;2023-10-13T03:59:05;100123.72;;;16.94;97.85
15634;BME280;14654;48.898;8.308;2023-10-13T04:01:35;100116.03;;;16.89;98.38
15634;BME280;14654;48.898;8.308;2023-10-13T04:04:14;100111.84;;;16.85;98.67
15634;BME280;14654;48.898;8.308;2023-10-13T04:06:41;100105.00;;;16.81;99.34
15634;BME280;14654;48.898;8.308;2023-10-13T04:09:21;100107.88;;;16.75;99.68
15634;BME280;14654;48.898;8.308;2023-10-13T04:11:55;100102.88;;;16.69;99.75
15634;BME280;14654;48.898;8.308;2023-10-13T04:14:31;100100.44;;;16.64;100.00
15634;BME280;14654;48.898;8.308;2023-10-13T04:17:16;100105.03;;;16.57;100.00
15634;BME280;14654;48.898;8.308;2023-10-13T04:19:48;100102.63;;;16.51;100.00
15634;BME280;14654;48.898;8.308;2023-10-13T04:25:26;100093.38;;;16.42;100.00
15634;BME280;14654;48.898;8.308;2023-10-13T04:28:17;100095.31;;;16.37;100.00
15634;BME280;14654;48.898;8.308;2023-10-13T04:33:26;100087.75;;;16.29;100.00
15634;BME280;14654;48.898;8.308;2023-10-13T04:36:15;100087.94;;;16.25;100.00
15634;BME280;14654;48.898;8.308;2023-10-13T04:38:55;100084.63;;;16.20;100.00
15634;BME280;14654;48.898;8.308;2023-10-13T04:41:42;100084.81;;;16.13;100.00
15634;BME280;14654;48.898;8.308;2023-10-13T04:44:14;100086.78;;;16.08;100.00
15634;BME280;14654;48.898;8.308;2023-10-13T04:47:00;100085.22;;;16.03;100.00
15634;BME280;14654;48.898;8.308;2023-10-13T04:49:29;100065.34;;;15.98;100.00
15634;BME280;14654;48.898;8.308;2023-10-13T04:52:16;100079.34;;;15.96;100.00
15634;BME280;14654;48.898;8.308;2023-10-13T04:55:13;100071.75;;;15.90;100.00
15634;BME280;14654;48.898;8.308;2023-10-13T04:57:57;100067.53;;;15.85;100.00
15634;BME280;14654;48.898;8.308;2023-10-13T05:00:36;100062.50;;;15.79;100.00
15634;BME280;14654;48.898;8.308;2023-10-13T05:03:40;100057.38;;;15.76;100.00
15634;BME280;14654;48.898;8.308;2023-10-13T05:06:33;100048.81;;;15.73;100.00
15634;BME280;14654;48.898;8.308;2023-10-13T05:09:12;100045.41;;;15.70;100.00
15634;BME280;14654;48.898;8.308;2023-10-13T05:11:57;100034.97;;;15.70;100.00
15634;BME280;14654;48.898;8.308;2023-10-13T05:14:40;100039.16;;;15.75;100.00
15634;BME280;14654;48.898;8.308;2023-10-13T05:17:24;100042.47;;;15.80;100.00
15634;BME280;14654;48.898;8.308;2023-10-13T05:20:09;100042.31;;;15.84;100.00
15634;BME280;14654;48.898;8.308;2023-10-13T05:22:53;100042.16;;;15.89;100.00
15634;BME280;14654;48.898;8.308;2023-10-13T05:25:38;100042.88;;;15.94;100.00
15634;BME280;14654;48.898;8.308;2023-10-13T05:28:22;100057.53;;;15.98;100.00
15634;BME280;14654;48.898;8.308;2023-10-13T05:31:09;100044.31;;;16.03;100.00
15634;BME280;14654;48.898;8.308;2023-10-13T05:33:53;100051.13;;;16.07;100.00
15634;BME280;14654;48.898;8.308;2023-10-13T05:36:37;100051.88;;;16.11;100.00
15634;BME280;14654;48.898;8.308;2023-10-13T05:39:23;100045.66;;;16.13;100.00
15634;BME280;14654;48.898;8.308;2023-10-13T05:42:07;100049.94;;;16.16;100.00
15634;BME280;14654;48.898;8.308;2023-10-13T05:44:51;100055.91;;;16.20;100.00
15634;BME280;14654;48.898;8.308;2023-10-13T05:47:35;100061.06;;;16.21;100.00
15634;BME280;14654;48.898;8.308;2023-10-13T05:50:04;100059.31;;;16.22;100.00
15634;BME280;14654;48.898;8.308;2023-10-13T05:52:48;100062.72;;;16.24;100.00
15634;BME280;14654;48.898;8.308;2023-10-13T05:55:30;100059.25;;;16.23;100.00
15634;BME280;14654;48.898;8.308;2023-10-13T05:58:15;100052.31;;;16.22;100.00
15634;BME280;14654;48.898;8.308;2023-10-13T06:00:59;100057.53;;;16.22;100.00
15634;BME280;14654;48.898;8.308;2023-10-13T06:03:43;100056.63;;;16.23;100.00
15634;BME280;14654;48.898;8.308;2023-10-13T06:06:27;100057.50;;;16.24;100.00
15634;BME280;14654;48.898;8.308;2023-10-13T06:09:11;100059.22;;;16.25;100.00
15634;BME280;14654;48.898;8.308;2023-10-13T06:11:55;100061.69;;;16.28;100.00
15634;BME280;14654;48.898;8.308;2023-10-13T06:14:39;100055.69;;;16.26;100.00
15634;BME280;14654;48.898;8.308;2023-10-13T06:17:23;100066.97;;;16.26;100.00
15634;BME280;14654;48.898;8.308;2023-10-13T06:20:08;100057.50;;;16.24;100.00
15634;BME280;14654;48.898;8.308;2023-10-13T06:22:52;100059.25;;;16.23;100.00
15634;BME280;14654;48.898;8.308;2023-10-13T06:25:37;100054.94;;;16.22;100.00
15634;BME280;14654;48.898;8.308;2023-10-13T06:28:21;100051.47;;;16.22;100.00
15634;BME280;14654;48.898;8.308;2023-10-13T06:31:06;100061.84;;;16.23;100.00
15634;BME280;14654;48.898;8.308;2023-10-13T06:33:32;100060.97;;;16.24;100.00
15634;BME280;14654;48.898;8.308;2023-10-13T06:36:05;100059.16;;;16.26;100.00
15634;BME280;14654;48.898;8.308;2023-10-13T06:38:35;100066.06;;;16.27;100.00
15634;BME280;14654;48.898;8.308;2023-10-13T06:41:04;100064.25;;;16.29;100.00
15634;BME280;14654;48.898;8.308;2023-10-13T06:43:33;100058.94;;;16.33;100.00
15634;BME280;14654;48.898;8.308;2023-10-13T06:46:04;100064.88;;;16.36;100.00
15634;BME280;14654;48.898;8.308;2023-10-13T06:48:30;100065.63;;;16.40;100.00
15634;BME280;14654;48.898;8.308;2023-10-13T06:51:05;100071.53;;;16.45;100.00
15634;BME280;14654;48.898;8.308;2023-10-13T06:53:43;100070.44;;;16.51;100.00
15634;BME280;14654;48.898;8.308;2023-10-13T06:56:12;100065.06;;;16.55;100.00
15634;BME280;14654;48.898;8.308;2023-10-13T06:58:45;100067.47;;;16.60;100.00
15634;BME280;14654;48.898;8.308;2023-10-13T07:01:12;100063.78;;;16.66;100.00
15634;BME280;14654;48.898;8.308;2023-10-13T07:03:44;100071.34;;;16.73;100.00
15634;BME280;14654;48.898;8.308;2023-10-13T07:06:17;100071.03;;;16.81;100.00
15634;BME280;14654;48.898;8.308;2023-10-13T07:08:49;100071.66;;;16.88;100.00
15634;BME280;14654;48.898;8.308;2023-10-13T07:11:19;100065.31;;;16.95;100.00
15634;BME280;14654;48.898;8.308;2023-10-13T07:14:01;100069.34;;;17.04;100.00
15634;BME280;14654;48.898;8.308;2023-10-13T07:16:56;100074.88;;;17.18;100.00
15634;BME280;14654;48.898;8.308;2023-10-13T07:19:25;100063.13;;;17.29;100.00
15634;BME280;14654;48.898;8.308;2023-10-13T07:21:54;100061.78;;;17.41;100.00
15634;BME280;14654;48.898;8.308;2023-10-13T07:24:25;100063.09;;;17.51;100.00
15634;BME280;14654;48.898;8.308;2023-10-13T07:26:52;100060.94;;;17.61;100.00
15634;BME280;14654;48.898;8.308;2023-10-13T07:29:23;100063.13;;;17.72;100.00
15634;BME280;14654;48.898;8.308;2023-10-13T07:31:50;100052.97;;;17.85;100.00
15634;BME280;14654;48.898;8.308;2023-10-13T07:34:15;100051.50;;;18.00;100.00
15634;BME280;14654;48.898;8.308;2023-10-13T07:36:55;100044.56;;;18.18;99.62
15634;BME280;14654;48.898;8.308;2023-10-13T07:39:28;100048.44;;;18.30;97.19
15634;BME280;14654;48.898;8.308;2023-10-13T07:41:54;100050.56;;;18.40;95.75
15634;BME280;14654;48.898;8.308;2023-10-13T07:44:23;100046.13;;;18.42;95.34
15634;BME280;14654;48.898;8.308;2023-10-13T07:46:57;100047.81;;;18.43;94.33
15634;BME280;14654;48.898;8.308;2023-10-13T07:49:37;100048.56;;;18.46;94.06
15634;BME280;14654;48.898;8.308;2023-10-13T07:52:12;100049.22;;;18.51;93.71
15634;BME280;14654;48.898;8.308;2023-10-13T07:54:48;100049.06;;;18.54;93.41
15634;BME280;14654;48.898;8.308;2023-10-13T07:57:21;100047.16;;;18.57;93.14
15634;BME280;14654;48.898;8.308;2023-10-13T07:59:55;100050.66;;;18.58;93.43
15634;BME280;14654;48.898;8.308;2023-10-13T08:02:32;100047.94;;;18.59;93.17
15634;BME280;14654;48.898;8.308;2023-10-13T08:05:17;100049.66;;;18.61;93.32
15634;BME280;14654;48.898;8.308;2023-10-13T08:07:54;100054.66;;;18.65;93.86
15634;BME280;14654;48.898;8.308;2023-10-13T08:10:21;100050.06;;;18.70;93.89
15634;BME280;14654;48.898;8.308;2023-10-13T08:12:54;100051.47;;;18.78;93.71
15634;BME280;14654;48.898;8.308;2023-10-13T08:15:21;100043.09;;;18.88;93.77
15634;BME280;14654;48.898;8.308;2023-10-13T08:17:56;100042.03;;;19.12;92.96
15634;BME280;14654;48.898;8.308;2023-10-13T08:20:23;100034.59;;;19.39;92.32
15634;BME280;14654;48.898;8.308;2023-10-13T08:22:51;100034.88;;;19.50;90.80
15634;BME280;14654;48.898;8.308;2023-10-13T08:25:35;100037.03;;;19.77;88.88
15634;BME280;14654;48.898;8.308;2023-10-13T08:28:19;100034.56;;;19.92;86.65
15634;BME280;14654;48.898;8.308;2023-10-13T08:31:04;100030.38;;;20.05;85.23
15634;BME280;14654;48.898;8.308;2023-10-13T08:33:39;100030.56;;;20.18;83.94
15634;BME280;14654;48.898;8.308;2023-10-13T08:36:12;100026.81;;;20.40;84.84
15634;BME280;14654;48.898;8.308;2023-10-13T08:38:53;100035.47;;;20.58;83.81
15634;BME280;14654;48.898;8.308;2023-10-13T08:41:20;100032.41;;;20.82;84.08
15634;BME280;14654;48.898;8.308;2023-10-13T08:43:50;100035.56;;;20.89;83.76
15634;BME280;14654;48.898;8.308;2023-10-13T08:46:19;100033.75;;;21.05;83.67
15634;BME280;14654;48.898;8.308;2023-10-13T08:48:59;100039.34;;;21.15;83.05
15634;BME280;14654;48.898;8.308;2023-10-13T08:51:54;100032.44;;;21.28;82.59
15634;BME280;14654;48.898;8.308;2023-10-13T08:54:51;100026.22;;;21.29;82.59
15634;BME280;14654;48.898;8.308;2023-10-13T08:57:37;100019.00;;;21.33;81.45
15634;BME280;14654;48.898;8.308;2023-10-13T09:00:03;100013.97;;;21.44;81.37
15634;BME280;14654;48.898;8.308;2023-10-13T09:02:49;100018.69;;;21.54;81.42
15634;BME280;14654;48.898;8.308;2023-10-13T09:05:46;100017.16;;;21.66;81.10
15634;BME280;14654;48.898;8.308;2023-10-13T09:08:28;100017.22;;;21.64;81.27
15634;BME280;14654;48.898;8.308;2023-10-13T09:11:03;100017.25;;;21.78;79.16
15634;BME280;14654;48.898;8.308;2023-10-13T09:13:37;100010.56;;;21.87;77.62
15634;BME280;14654;48.898;8.308;2023-10-13T09:16:10;100000.03;;;22.16;75.90
15634;BME280;14654;48.898;8.308;2023-10-13T09:18:41;99998.25;;;22.17;74.67
15634;BME280;14654;48.898;8.308;2023-10-13T09:21:11;99994.94;;;22.28;74.12
15634;BME280;14654;48.898;8.308;2023-10-13T09:24:09;99986.19;;;22.42;71.59
15634;BME280;14654;48.898;8.308;2023-10-13T09:26:48;99982.75;;;22.54;71.81
15634;BME280;14654;48.898;8.308;2023-10-13T09:29:18;99985.03;;;22.88;71.71
15634;BME280;14654;48.898;8.308;2023-10-13T09:31:46;99990.38;;;23.13;71.55
15634;BME280;14654;48.898;8.308;2023-10-13T09:34:19;99988.00;;;23.23;71.10
15634;BME280;14654;48.898;8.308;2023-10-13T09:36:47;99978.28;;;23.37;70.26
15634;BME280;14654;48.898;8.308;2023-10-13T09:39:14;99986.03;;;23.40;68.72
15634;BME280;14654;48.898;8.308;2023-10-13T09:41:55;99985.91;;;23.54;67.90
15634;BME280;14654;48.898;8.308;2023-10-13T09:44:21;99981.78;;;23.37;66.46
15634;BME280;14654;48.898;8.308;2023-10-13T09:46:46;99972.50;;;23.57;66.23
15634;BME280;14654;48.898;8.308;2023-10-13T09:49:19;99973.78;;;23.52;66.45
15634;BME280;14654;48.898;8.308;2023-10-13T09:52:01;99967.22;;;23.44;65.91
15634;BME280;14654;48.898;8.308;2023-10-13T09:54:38;99966.66;;;23.39;65.57
15634;BME280;14654;48.898;8.308;2023-10-13T09:57:15;99950.75;;;23.41;65.64
15634;BME280;14654;48.898;8.308;2023-10-13T09:59:56;99948.41;;;23.36;65.39
15634;BME280;14654;48.898;8.308;2023-10-13T10:02:31;99945.78;;;23.62;64.99
15634;BME280;14654;48.898;8.308;2023-10-13T10:04:57;99942.47;;;23.84;65.07
15634;BME280;14654;48.898;8.308;2023-10-13T10:07:40;99941.28;;;24.14;64.85
15634;BME280;14654;48.898;8.308;2023-10-13T10:10:06;99936.22;;;23.98;64.34
15634;BME280;14654;48.898;8.308;2023-10-13T10:13:03;99933.69;;;24.10;64.56
15634;BME280;14654;48.898;8.308;2023-10-13T10:15:34;99941.75;;;24.32;64.42
15634;BME280;14654;48.898;8.308;2023-10-13T10:18:01;99928.25;;;24.24;64.25
15634;BME280;14654;48.898;8.308;2023-10-13T10:20:35;99921.94;;;24.38;63.66
15634;BME280;14654;48.898;8.308;2023-10-13T10:23:28;99931.53;;;24.52;63.75
15634;BME280;14654;48.898;8.308;2023-10-13T10:26:13;99927.03;;;24.65;63.74
15634;BME280;14654;48.898;8.308;2023-10-13T10:28:46;99924.09;;;24.81;63.78
15634;BME280;14654;48.898;8.308;2023-10-13T10:31:12;99920.22;;;24.74;61.76
15634;BME280;14654;48.898;8.308;2023-10-13T10:33:39;99924.00;;;24.83;62.02
15634;BME280;14654;48.898;8.308;2023-10-13T10:36:04;99919.13;;;25.01;61.91
15634;BME280;14654;48.898;8.308;2023-10-13T10:38:30;99916.63;;;25.11;61.30
15634;BME280;14654;48.898;8.308;2023-10-13T10:43:29;99911.06;;;25.03;60.75
15634;BME280;14654;48.898;8.308;2023-10-13T10:46:28;99908.44;;;25.03;60.35
15634;BME280;14654;48.898;8.308;2023-10-13T10:48:57;99907.84;;;25.22;60.45
15634;BME280;14654;48.898;8.308;2023-10-13T10:51:27;99907.16;;;25.42;59.97
15634;BME280;14654;48.898;8.308;2023-10-13T10:54:02;99900.59;;;25.48;59.19
15634;BME280;14654;48.898;8.308;2023-10-13T10:56:37;99911.19;;;25.13;59.31
15634;BME280;14654;48.898;8.308;2023-10-13T10:59:04;99902.50;;;25.46;59.17
15634;BME280;14654;48.898;8.308;2023-10-13T11:01:31;99904.56;;;25.54;59.19
15634;BME280;14654;48.898;8.308;2023-10-13T11:04:13;99900.09;;;25.43;59.11
15634;BME280;14654;48.898;8.308;2023-10-13T11:06:51;99901.03;;;25.53;59.47
15634;BME280;14654;48.898;8.308;2023-10-13T11:09:30;99898.88;;;25.70;59.39
15634;BME280;14654;48.898;8.308;2023-10-13T11:14:45;99884.28;;;25.76;58.51
15634;BME280;14654;48.898;8.308;2023-10-13T11:17:21;99872.50;;;25.46;57.94
15634;BME280;14654;48.898;8.308;2023-10-13T11:19:52;99865.91;;;25.63;57.58
15634;BME280;14654;48.898;8.308;2023-10-13T11:22:19;99857.06;;;25.74;57.36
15634;BME280;14654;48.898;8.308;2023-10-13T11:25:04;99860.56;;;25.74;57.36
15634;BME280;14654;48.898;8.308;2023-10-13T11:27:40;99866.34;;;25.68;57.81
15634;BME280;14654;48.898;8.308;2023-10-13T11:30:13;99849.75;;;25.43;58.08
15634;BME280;14654;48.898;8.308;2023-10-13T11:32:45;99842.47;;;25.79;57.57
15634;BME280;14654;48.898;8.308;2023-10-13T11:35:12;99851.75;;;25.96;57.89
15634;BME280;14654;48.898;8.308;2023-10-13T11:37:47;99837.28;;;26.00;57.53
15634;BME280;14654;48.898;8.308;2023-10-13T11:40:24;99830.22;;;25.67;56.78
15634;BME280;14654;48.898;8.308;2023-10-13T11:43:11;99823.59;;;25.61;57.23
15634;BME280;14654;48.898;8.308;2023-10-13T11:45:50;99827.94;;;25.62;57.29
15634;BME280;14654;48.898;8.308;2023-10-13T11:48:39;99822.84;;;25.82;57.47
15634;BME280;14654;48.898;8.308;2023-10-13T11:51:06;99821.63;;;25.97;58.08
15634;BME280;14654;48.898;8.308;2023-10-13T11:53:33;99817.41;;;25.83;57.21
15634;BME280;14654;48.898;8.308;2023-10-13T11:55:59;99813.53;;;25.99;57.47
15634;BME280;14654;48.898;8.308;2023-10-13T11:58:25;99810.88;;;25.99;57.80
15634;BME280;14654;48.898;8.308;2023-10-13T12:00:50;99806.00;;;25.83;57.89
15634;BME280;14654;48.898;8.308;2023-10-13T12:03:16;99807.06;;;25.80;57.69
15634;BME280;14654;48.898;8.308;2023-10-13T12:06:00;99797.66;;;25.87;57.16
15634;BME280;14654;48.898;8.308;2023-10-13T12:08:45;99798.09;;;26.04;57.83
15634;BME280;14654;48.898;8.308;2023-10-13T12:11:18;99796.78;;;25.98;57.59
15634;BME280;14654;48.898;8.308;2023-10-13T12:13:56;99798.06;;;26.15;57.38
15634;BME280;14654;48.898;8.308;2023-10-13T12:16:22;99799.19;;;26.13;57.99
15634;BME280;14654;48.898;8.308;2023-10-13T12:18:47;99792.28;;;26.22;57.99
15634;BME280;14654;48.898;8.308;2023-10-13T12:21:19;99796.31;;;26.37;58.17
15634;BME280;14654;48.898;8.308;2023-10-13T12:23:46;99791.91;;;26.47;58.54
15634;BME280;14654;48.898;8.308;2023-10-13T12:26:12;99785.72;;;26.26;58.12
15634;BME280;14654;48.898;8.308;2023-10-13T12:28:58;99782.38;;;26.24;57.71
15634;BME280;14654;48.898;8.308;2023-10-13T12:31:32;99777.09;;;26.45;57.45
15634;BME280;14654;48.898;8.308;2023-10-13T12:33:57;99774.22;;;26.37;57.82
15634;BME280;14654;48.898;8.308;2023-10-13T12:36:32;99765.44;;;26.36;57.54
15634;BME280;14654;48.898;8.308;2023-10-13T12:39:06;99762.16;;;26.44;57.43
15634;BME280;14654;48.898;8.308;2023-10-13T12:41:32;99759.66;;;26.31;57.40
15634;BME280;14654;48.898;8.308;2023-10-13T12:44:16;99748.81;;;26.34;57.35
15634;BME280;14654;48.898;8.308;2023-10-13T12:47:00;99749.19;;;26.29;56.90
15634;BME280;14654;48.898;8.308;2023-10-13T12:49:44;99755.59;;;26.27;57.70
15634;BME280;14654;48.898;8.308;2023-10-13T12:52:10;99749.00;;;26.21;57.40
15634;BME280;14654;48.898;8.308;2023-10-13T12:54:51;99738.78;;;26.38;57.65
15634;BME280;14654;48.898;8.308;2023-10-13T12:57:32;99742.06;;;26.30;57.96
15634;BME280;14654;48.898;8.308;2023-10-13T12:59:58;99733.72;;;26.35;56.95
15634;BME280;14654;48.898;8.308;2023-10-13T13:02:25;99737.22;;;26.35;57.02
15634;BME280;14654;48.898;8.308;2023-10-13T13:04:54;99734.44;;;26.15;57.09
15634;BME280;14654;48.898;8.308;2023-10-13T13:07:26;99733.16;;;26.31;57.17
15634;BME280;14654;48.898;8.308;2023-10-13T13:09:55;99734.66;;;26.24;58.05
15634;BME280;14654;48.898;8.308;2023-10-13T13:12:24;99727.44;;;26.57;57.62
15634;BME280;14654;48.898;8.308;2023-10-13T13:14:50;99714.31;;;26.55;57.30
15634;BME280;14654;48.898;8.308;2023-10-13T13:17:20;99717.09;;;26.54;57.84
15634;BME280;14654;48.898;8.308;2023-10-13T13:19:45;99708.69;;;26.48;57.20
15634;BME280;14654;48.898;8.308;2023-10-13T13:22:11;99705.31;;;26.46;57.71
15634;BME280;14654;48.898;8.308;2023-10-13T13:27:17;99699.88;;;26.48;56.98
15634;BME280;14654;48.898;8.308;2023-10-13T13:29:45;99692.78;;;26.48;57.77
15634;BME280;14654;48.898;8.308;2023-10-13T13:32:10;99680.59;;;26.25;57.33
15634;BME280;14654;48.898;8.308;2023-10-13T13:34:44;99678.31;;;26.31;57.55
15634;BME280;14654;48.898;8.308;2023-10-13T13:37:18;99678.97;;;26.55;57.75
15634;BME280;14654;48.898;8.308;2023-10-13T13:39:45;99669.94;;;26.36;57.27
15634;BME280;14654;48.898;8.308;2023-10-13T13:42:11;99660.72;;;26.30;57.44